createdAt,value
2019-02-05T00:01:08.854Z,51.07
2019-02-05T00:03:38.125Z,49.73
2019-02-05T00:06:07.622Z,46.57
2019-02-05T00:08:37.539Z,41.97
2019-02-05T00:11:06.838Z,38.87
2019-02-05T00:13:36.178Z,40.40
2019-02-05T00:16:05.592Z,37.20
2019-02-05T00:18:34.884Z,42.30
2019-02-05T00:21:04.902Z,39.87
2019-02-05T00:23:34.570Z,39.47
2019-02-05T00:26:06.314Z,42.63
2019-02-05T00:28:35.250Z,44.93
2019-02-05T00:31:04.804Z,46.77
2019-02-05T00:33:34.366Z,42.87
2019-02-05T00:36:03.836Z,43.20
2019-02-05T00:38:33.442Z,45.93
2019-02-05T00:41:02.657Z,43.03
2019-02-05T00:43:32.080Z,40.30
2019-02-05T00:46:01.278Z,45.13
2019-02-05T00:48:30.613Z,49.97
2019-02-05T00:51:00.193Z,47.33
2019-02-05T00:53:29.387Z,54.77
2019-02-05T00:55:58.680Z,52.80
2019-02-05T00:58:27.990Z,47.00
2019-02-05T01:00:57.190Z,51.07
2019-02-05T01:03:26.488Z,44.60
2019-02-05T01:05:55.682Z,44.30
2019-02-05T01:08:25.192Z,46.23
2019-02-05T01:10:54.388Z,45.10
2019-02-05T01:13:23.682Z,77.23
2019-02-05T01:15:52.912Z,98.47
2019-02-05T01:18:22.184Z,248.63
2019-02-05T01:20:51.456Z,149.57
2019-02-05T01:23:20.780Z,96.13
2019-02-05T01:25:50.098Z,101.50
2019-02-05T01:28:19.530Z,155.67
2019-02-05T01:30:48.904Z,76.43
2019-02-05T01:33:18.151Z,96.70
2019-02-05T01:35:47.940Z,103.90
2019-02-05T01:38:17.200Z,90.70
2019-02-05T01:40:46.414Z,102.33
2019-02-05T01:43:15.708Z,108.67
2019-02-05T01:45:44.946Z,79.57
2019-02-05T01:48:14.222Z,81.57
2019-02-05T01:50:44.083Z,97.00
2019-02-05T01:53:13.559Z,74.27
2019-02-05T01:55:42.718Z,89.07
2019-02-05T01:58:12.058Z,79.40
2019-02-05T02:00:41.329Z,74.07
2019-02-05T02:03:10.544Z,89.93
2019-02-05T02:05:40.198Z,79.47
2019-02-05T02:08:10.438Z,90.53
2019-02-05T02:10:39.698Z,146.93
2019-02-05T02:13:08.935Z,104.77
2019-02-05T02:15:38.254Z,90.77
2019-02-05T02:18:07.484Z,99.53
2019-02-05T02:20:37.145Z,92.37
2019-02-05T02:23:06.370Z,95.50
2019-02-05T02:25:35.734Z,101.17
2019-02-05T02:28:05.273Z,121.57
2019-02-05T02:30:38.917Z,85.30
2019-02-05T02:33:08.717Z,86.63
2019-02-05T02:35:38.371Z,83.33
2019-02-05T02:38:07.674Z,110.00
2019-02-05T02:40:36.975Z,93.00
2019-02-05T02:43:06.306Z,96.00
2019-02-05T02:45:35.688Z,92.00
2019-02-05T02:48:05.365Z,81.00
2019-02-05T02:50:34.643Z,74.07
2019-02-05T02:53:03.942Z,77.33
2019-02-05T02:55:33.177Z,76.57
2019-02-05T02:58:02.540Z,73.10
2019-02-05T03:00:31.901Z,73.60
2019-02-05T03:03:01.363Z,74.70
2019-02-05T03:05:30.922Z,106.17
2019-02-05T03:08:00.276Z,116.13
2019-02-05T03:10:31.088Z,97.60
2019-02-05T03:13:00.361Z,106.67
2019-02-05T03:15:30.762Z,124.20
2019-02-05T03:18:00.034Z,107.97
2019-02-05T03:20:29.470Z,130.77
2019-02-05T03:22:58.759Z,130.13
2019-02-05T03:25:28.029Z,148.17
2019-02-05T03:27:57.290Z,101.03
2019-02-05T03:30:26.569Z,107.47
2019-02-05T03:32:56.110Z,115.13
2019-02-05T03:35:25.482Z,97.27
2019-02-05T03:37:54.860Z,124.50
2019-02-05T03:41:08.946Z,99.23
2019-02-05T03:43:41.660Z,90.87
2019-02-05T03:46:12.471Z,85.90
2019-02-05T03:48:42.930Z,91.00
2019-02-05T03:52:05.929Z,90.97
2019-02-05T03:55:30.591Z,92.23
2019-02-05T03:58:28.128Z,80.97
2019-02-05T04:01:42.480Z,78.87
2019-02-05T04:05:08.542Z,86.73
2019-02-05T04:08:28.759Z,93.40
2019-02-05T04:11:45.701Z,93.40
2019-02-05T04:14:58.722Z,85.80
2019-02-05T04:18:06.246Z,94.83
2019-02-05T04:21:31.833Z,93.07
2019-02-05T04:24:57.849Z,94.20
2019-02-05T04:27:51.039Z,92.23
2019-02-05T04:30:50.521Z,101.83
2019-02-05T04:34:01.351Z,99.63
2019-02-05T04:37:07.199Z,91.40
2019-02-05T04:40:32.911Z,87.20
2019-02-05T04:43:43.496Z,89.57
2019-02-05T04:46:56.527Z,104.47
2019-02-05T04:50:01.311Z,117.07
2019-02-05T04:53:08.848Z,121.73
2019-02-05T04:56:04.367Z,115.93
2019-02-05T04:59:20.155Z,126.13
2019-02-05T05:02:23.961Z,120.33
2019-02-05T05:05:19.567Z,116.43
2019-02-05T05:08:16.373Z,122.00
2019-02-05T05:10:45.569Z,116.23
2019-02-05T05:13:14.971Z,101.30
2019-02-05T05:15:44.259Z,114.07
2019-02-05T05:18:15.546Z,107.83
2019-02-05T05:20:45.701Z,104.60
2019-02-05T05:23:15.150Z,107.83
2019-02-05T05:25:44.436Z,106.93
2019-02-05T05:28:13.728Z,102.43
2019-02-05T05:30:43.097Z,112.50
2019-02-05T05:33:12.780Z,106.77
2019-02-05T05:35:44.573Z,109.77
2019-02-05T05:38:13.273Z,114.20
2019-02-05T05:40:42.523Z,102.07
2019-02-05T05:43:11.808Z,111.37
2019-02-05T05:45:41.181Z,112.20
2019-02-05T05:48:10.540Z,105.50
2019-02-05T05:50:39.950Z,114.77
2019-02-05T05:53:09.325Z,98.90
2019-02-05T05:55:38.569Z,103.33
2019-02-05T05:58:07.892Z,111.00
2019-02-05T06:00:37.265Z,97.50
2019-02-05T06:03:06.577Z,93.97
2019-02-05T06:05:36.262Z,114.73
2019-02-05T06:08:05.620Z,86.33
2019-02-05T06:10:34.916Z,85.20
2019-02-05T06:13:04.343Z,81.60
2019-02-05T06:15:35.899Z,87.27
2019-02-05T06:18:04.828Z,94.43
2019-02-05T06:20:34.696Z,93.50
2019-02-05T06:23:04.017Z,96.93
2019-02-05T06:25:33.369Z,94.37
2019-02-05T06:28:02.681Z,108.50
2019-02-05T06:30:32.038Z,103.13
2019-02-05T06:33:01.305Z,101.30
2019-02-05T06:35:30.743Z,93.93
2019-02-05T06:38:00.117Z,97.17
2019-02-05T06:40:29.363Z,95.57
2019-02-05T06:42:58.588Z,95.63
2019-02-05T06:45:27.965Z,103.00
2019-02-05T06:47:57.367Z,104.90
2019-02-05T06:50:26.571Z,97.53
2019-02-05T06:52:56.245Z,100.80
2019-02-05T06:55:25.506Z,101.13
2019-02-05T06:57:54.865Z,111.93
2019-02-05T07:00:24.215Z,112.43
2019-02-05T07:02:53.588Z,100.70
2019-02-05T07:05:22.892Z,99.90
2019-02-05T07:07:52.770Z,95.37
2019-02-05T07:10:22.763Z,84.43
2019-02-05T07:12:52.154Z,101.47
2019-02-05T07:15:21.422Z,110.63
2019-02-05T07:17:50.789Z,97.83
2019-02-05T07:20:20.191Z,91.03
2019-02-05T07:22:49.575Z,104.13
2019-02-05T07:25:19.344Z,111.03
2019-02-05T07:27:48.783Z,108.07
2019-02-05T07:30:20.863Z,96.53
2019-02-05T07:32:50.328Z,90.57
2019-02-05T07:35:19.993Z,108.93
2019-02-05T07:37:49.412Z,100.47
2019-02-05T07:40:19.804Z,114.90
2019-02-05T07:42:49.973Z,108.87
2019-02-05T07:45:20.310Z,103.83
2019-02-05T07:47:49.675Z,103.20
2019-02-05T07:50:23.809Z,113.37
2019-02-05T07:52:53.141Z,115.63
2019-02-05T07:57:45.995Z,102.53
2019-02-05T08:00:20.726Z,100.83
2019-02-05T08:02:50.188Z,94.60
2019-02-05T08:05:21.859Z,103.53
2019-02-05T08:07:51.221Z,86.07
2019-02-05T08:10:21.539Z,89.17
2019-02-05T08:12:51.260Z,102.07
2019-02-05T08:15:23.712Z,88.97
2019-02-05T08:17:53.176Z,109.37
2019-02-05T08:20:22.503Z,108.87
2019-02-05T08:22:51.934Z,100.90
2019-02-05T08:25:21.179Z,98.07
2019-02-05T08:27:51.808Z,94.67
2019-02-05T08:30:27.246Z,99.17
2019-02-05T08:32:56.618Z,87.03
2019-02-05T08:35:26.169Z,92.07
2019-02-05T08:37:55.395Z,95.73
2019-02-05T08:40:24.889Z,98.33
2019-02-05T08:42:54.263Z,99.20
2019-02-05T08:45:25.527Z,104.33
2019-02-05T08:47:54.862Z,94.43
2019-02-05T08:50:27.394Z,94.27
2019-02-05T08:52:56.811Z,78.93
2019-02-05T08:55:26.135Z,68.03
2019-02-05T08:57:57.479Z,53.67
2019-02-05T09:00:29.458Z,59.63
2019-02-05T09:02:58.898Z,63.40
2019-02-05T09:05:28.178Z,56.60
2019-02-05T09:07:57.471Z,45.53
2019-02-05T09:10:29.405Z,41.60
2019-02-05T09:12:58.818Z,46.27
2019-02-05T09:15:29.707Z,44.00
2019-02-05T09:17:59.703Z,38.17
2019-02-05T09:20:29.054Z,49.10
2019-02-05T09:22:58.448Z,39.50
2019-02-05T09:25:27.758Z,40.87
2019-02-05T09:27:57.168Z,46.40
2019-02-05T09:30:31.535Z,36.43
2019-02-05T09:33:03.042Z,42.63
2019-02-05T09:35:32.523Z,46.57
2019-02-05T09:38:01.865Z,48.37
2019-02-05T09:40:32.677Z,42.20
2019-02-05T09:43:02.144Z,43.57
2019-02-05T09:45:32.014Z,38.67
2019-02-05T09:48:01.666Z,42.73
2019-02-05T09:50:43.488Z,41.30
2019-02-05T09:53:02.148Z,46.03
2019-02-05T09:55:31.511Z,36.60
2019-02-05T09:58:00.770Z,40.50
2019-02-05T10:00:33.004Z,38.03
2019-02-05T10:03:02.722Z,38.50
2019-02-05T10:05:32.768Z,35.93
2019-02-05T10:08:02.247Z,41.97
2019-02-05T10:10:31.643Z,40.53
2019-02-05T10:13:01.064Z,44.17
2019-02-05T10:15:32.687Z,45.10
2019-02-05T10:18:02.398Z,42.87
2019-02-05T10:20:31.654Z,39.10
2019-02-05T10:23:03.539Z,41.27
2019-02-05T10:25:32.982Z,36.87
2019-02-05T10:28:02.368Z,39.27
2019-02-05T10:30:34.098Z,40.87
2019-02-05T10:33:04.125Z,41.27
2019-02-05T10:35:33.473Z,42.17
2019-02-05T10:38:02.906Z,40.53
2019-02-05T10:40:32.189Z,38.73
2019-02-05T10:43:01.506Z,45.17
2019-02-05T10:45:31.074Z,44.93
2019-02-05T10:48:00.601Z,42.73
2019-02-05T10:50:29.895Z,41.13
2019-02-05T10:52:59.251Z,40.57
2019-02-05T10:55:28.587Z,40.37
2019-02-05T10:57:57.813Z,34.13
2019-02-05T11:00:29.212Z,42.07
2019-02-05T11:03:00.346Z,38.73
2019-02-05T11:05:30.896Z,41.70
2019-02-05T11:08:00.479Z,41.07
2019-02-05T11:10:29.882Z,41.37
2019-02-05T11:12:59.226Z,37.67
2019-02-05T11:15:32.486Z,32.23
2019-02-05T11:18:02.135Z,38.80
2019-02-05T11:20:31.685Z,42.70
2019-02-05T11:23:01.155Z,41.27
2019-02-05T11:25:30.504Z,41.37
2019-02-05T11:27:59.822Z,40.00
2019-02-05T11:30:31.978Z,41.27
2019-02-05T11:33:01.376Z,41.43
2019-02-05T11:35:31.184Z,41.73
2019-02-05T11:38:00.639Z,39.70
2019-02-05T11:40:32.310Z,48.13
2019-02-05T11:43:01.551Z,44.63
2019-02-05T11:45:30.930Z,43.90
2019-02-05T11:48:01.394Z,41.13
2019-02-05T11:50:30.737Z,44.33
2019-02-05T11:53:00.054Z,39.17
2019-02-05T11:55:30.674Z,43.17
2019-02-05T11:57:59.969Z,41.30
2019-02-05T12:00:52.043Z,45.07
2019-02-05T12:03:21.729Z,43.63
2019-02-05T12:05:51.106Z,42.27
2019-02-05T12:08:20.464Z,44.23
2019-02-05T12:10:49.815Z,48.17
2019-02-05T12:13:19.187Z,50.20
2019-02-05T12:15:48.460Z,45.20
2019-02-05T12:18:17.842Z,49.97
2019-02-05T12:20:47.286Z,51.47
2019-02-05T12:23:16.516Z,50.33
2019-02-05T12:25:45.894Z,46.73
2019-02-05T12:28:15.182Z,44.60
2019-02-05T12:30:45.659Z,47.03
2019-02-05T12:33:15.120Z,46.70
2019-02-05T12:35:44.760Z,47.73
2019-02-05T12:38:14.237Z,46.57
2019-02-05T12:40:43.558Z,50.73
2019-02-05T12:43:12.784Z,47.73
2019-02-05T12:45:42.098Z,45.93
2019-02-05T12:48:11.326Z,47.67
2019-02-05T12:50:40.808Z,48.90
2019-02-05T12:53:10.264Z,48.43
2019-02-05T12:55:39.760Z,41.33
2019-02-05T12:58:09.200Z,44.83
2019-02-05T13:00:56.865Z,48.60
2019-02-05T13:03:17.573Z,46.13
2019-02-05T13:05:47.159Z,45.27
2019-02-05T13:08:16.482Z,43.57
2019-02-05T13:10:48.554Z,41.83
2019-02-05T13:13:18.424Z,42.23
2019-02-05T13:15:48.996Z,44.17
2019-02-05T13:18:18.292Z,44.37
2019-02-05T13:20:47.686Z,42.97
2019-02-05T13:23:17.056Z,45.73
2019-02-05T13:25:46.374Z,37.33
2019-02-05T13:28:15.834Z,42.93
2019-02-05T13:30:46.433Z,37.53
2019-02-05T13:33:17.165Z,39.47
2019-02-05T13:35:46.590Z,44.03
2019-02-05T13:38:16.026Z,37.63
2019-02-05T13:40:45.796Z,41.53
2019-02-05T13:43:15.139Z,41.13
2019-02-05T13:45:44.806Z,40.77
2019-02-05T13:48:14.406Z,45.07
2019-02-05T13:50:43.737Z,44.53
2019-02-05T13:53:13.146Z,38.77
2019-02-05T13:55:44.755Z,38.93
2019-02-05T13:58:14.944Z,39.33
2019-02-05T14:00:46.812Z,45.93
2019-02-05T14:03:16.123Z,42.80
2019-02-05T14:05:45.698Z,44.90
2019-02-05T14:08:14.979Z,37.97
2019-02-05T14:10:44.781Z,34.97
2019-02-05T14:13:14.145Z,39.70
2019-02-05T14:15:44.206Z,38.43
2019-02-05T14:18:13.502Z,41.30
2019-02-05T14:20:42.663Z,41.53
2019-02-05T14:23:12.131Z,40.07
2019-02-05T14:25:41.455Z,39.50
2019-02-05T14:28:10.724Z,42.43
2019-02-05T14:30:51.837Z,40.50
2019-02-05T14:33:21.558Z,40.87
2019-02-05T14:35:50.756Z,46.23
2019-02-05T14:38:19.987Z,45.37
2019-02-05T14:40:49.296Z,49.83
2019-02-05T14:43:18.607Z,51.30
2019-02-05T14:45:48.053Z,48.10
2019-02-05T14:48:17.442Z,45.40
2019-02-05T14:50:47.376Z,47.63
2019-02-05T14:53:16.723Z,49.77
2019-02-05T14:55:45.975Z,46.53
2019-02-05T14:58:16.299Z,44.87
2019-02-05T15:00:45.586Z,44.17
2019-02-05T15:03:15.604Z,47.77
2019-02-05T15:05:46.003Z,47.17
2019-02-05T15:08:16.862Z,48.53
2019-02-05T15:10:46.164Z,49.73
2019-02-05T15:13:16.210Z,45.63
2019-02-05T15:15:45.578Z,47.60
2019-02-05T15:18:17.323Z,57.03
2019-02-05T15:20:48.305Z,46.70
2019-02-05T15:23:17.640Z,55.23
2019-02-05T15:25:47.007Z,53.47
2019-02-05T15:28:16.241Z,53.67
2019-02-05T15:30:45.728Z,55.83
2019-02-05T15:33:56.605Z,50.17
2019-02-05T15:36:33.436Z,52.30
2019-02-05T15:39:04.130Z,49.43
2019-02-05T15:41:33.312Z,50.67
2019-02-05T15:44:02.480Z,49.17
2019-02-05T15:46:32.523Z,50.53
2019-02-05T15:49:01.885Z,47.27
2019-02-05T15:51:31.092Z,47.03
2019-02-05T15:54:00.431Z,53.07
2019-02-05T15:56:29.649Z,51.27
2019-02-05T15:58:59.335Z,52.40
2019-02-05T16:01:29.091Z,50.17
2019-02-05T16:03:58.315Z,53.47
2019-02-05T16:06:27.521Z,54.90
2019-02-05T16:08:56.804Z,47.50
2019-02-05T16:11:26.123Z,56.40
2019-02-05T16:13:55.552Z,49.00
2019-02-05T16:16:25.307Z,49.37
2019-02-05T16:18:54.606Z,53.53
2019-02-05T16:21:23.860Z,58.57
2019-02-05T16:23:53.152Z,48.10
2019-02-05T16:26:22.555Z,50.67
2019-02-05T16:28:53.019Z,50.60
2019-02-05T16:31:22.801Z,52.00
2019-02-05T16:33:52.218Z,53.57
2019-02-05T16:36:21.762Z,55.27
2019-02-05T16:38:51.111Z,54.57
2019-02-05T16:41:20.481Z,46.43
2019-02-05T16:43:49.829Z,56.30
2019-02-05T16:46:19.727Z,50.03
2019-02-05T16:48:49.070Z,47.93
2019-02-05T16:51:18.419Z,53.70
2019-02-05T16:53:47.779Z,54.70
2019-02-05T16:56:17.919Z,55.00
2019-02-05T16:58:47.480Z,133.80
2019-02-05T17:01:17.087Z,82.60
2019-02-05T17:03:46.373Z,193.57
2019-02-05T17:06:15.717Z,97.37
2019-02-05T17:08:45.067Z,49.70
2019-02-05T17:11:14.290Z,48.40
2019-02-05T17:13:43.671Z,64.87
2019-02-05T17:16:13.261Z,56.60
2019-02-05T17:18:42.532Z,137.77
2019-02-05T17:21:11.788Z,108.30
2019-02-05T17:23:41.147Z,120.50
2019-02-05T17:26:10.467Z,75.30
2019-02-05T17:28:39.854Z,68.27
2019-02-05T17:31:09.536Z,52.97
2019-02-05T17:33:38.861Z,51.90
2019-02-05T17:36:08.179Z,63.60
2019-02-05T17:38:37.587Z,52.57
2019-02-05T17:41:06.953Z,67.97
2019-02-05T17:43:36.327Z,66.67
2019-02-05T17:46:06.168Z,43.93
2019-02-05T17:48:36.035Z,49.90
2019-02-05T17:51:05.298Z,52.67
2019-02-05T17:53:34.676Z,49.00
2019-02-05T17:56:04.261Z,46.10
2019-02-05T17:58:33.723Z,43.63
2019-02-05T18:01:11.568Z,44.57
2019-02-05T18:03:41.046Z,45.70
2019-02-05T18:06:10.486Z,49.47
2019-02-05T18:08:40.176Z,48.17
2019-02-05T18:11:09.682Z,50.70
2019-02-05T18:13:39.493Z,47.47
2019-02-05T18:16:16.843Z,49.73
2019-02-05T18:18:46.425Z,44.27
2019-02-05T18:21:16.414Z,47.53
2019-02-05T18:23:45.810Z,51.93
2019-02-05T18:26:15.115Z,51.33
2019-02-05T18:28:44.497Z,54.97
2019-02-05T18:31:13.895Z,48.47
2019-02-05T18:33:43.268Z,45.77
2019-02-05T18:36:12.661Z,54.10
2019-02-05T18:38:42.089Z,49.33
2019-02-05T18:41:11.432Z,50.43
2019-02-05T18:43:40.921Z,51.33
2019-02-05T18:46:12.723Z,51.37
2019-02-05T18:48:41.430Z,51.70
2019-02-05T18:51:10.711Z,52.07
2019-02-05T18:53:40.555Z,53.23
2019-02-05T18:56:10.339Z,49.37
2019-02-05T18:58:39.715Z,51.03
2019-02-05T19:01:09.731Z,57.63
2019-02-05T19:03:39.155Z,52.67
2019-02-05T19:06:08.693Z,58.03
2019-02-05T19:08:38.826Z,54.07
2019-02-05T19:11:09.108Z,51.20
2019-02-05T19:13:38.542Z,51.77
2019-02-05T19:16:08.912Z,52.37
2019-02-05T19:18:38.299Z,56.47
2019-02-05T19:21:07.652Z,51.67
2019-02-05T19:23:37.192Z,53.33
2019-02-05T19:26:10.933Z,54.67
2019-02-05T19:28:41.619Z,61.90
2019-02-05T19:31:20.439Z,59.57
2019-02-05T19:33:51.608Z,51.47
2019-02-05T19:36:20.956Z,53.70
2019-02-05T19:38:50.468Z,51.17
2019-02-05T19:41:20.402Z,58.77
2019-02-05T19:43:49.915Z,48.50
2019-02-05T19:46:37.372Z,55.00
2019-02-05T19:49:22.250Z,52.53
2019-02-05T19:51:51.958Z,54.63
2019-02-05T19:54:21.726Z,58.93
2019-02-05T19:56:51.111Z,60.37
2019-02-05T19:59:21.036Z,76.80
2019-02-05T20:01:50.495Z,85.00
2019-02-05T20:04:19.795Z,88.60
2019-02-05T20:06:49.433Z,90.33
2019-02-05T20:09:18.942Z,97.97
2019-02-05T20:11:48.412Z,59.47
2019-02-05T20:14:17.776Z,56.27
2019-02-05T20:16:47.121Z,56.40
2019-02-05T20:19:16.452Z,65.13
2019-02-05T20:21:45.755Z,58.23
2019-02-05T20:24:15.163Z,60.03
2019-02-05T20:26:47.449Z,61.77
2019-02-05T20:29:15.497Z,60.87
2019-02-05T20:31:44.832Z,65.60
2019-02-05T20:34:14.126Z,102.07
2019-02-05T20:36:43.795Z,59.33
2019-02-05T20:39:15.249Z,61.70
2019-02-05T20:41:44.484Z,79.53
2019-02-05T20:44:13.806Z,65.30
2019-02-05T20:46:43.149Z,65.60
2019-02-05T20:49:12.521Z,70.70
2019-02-05T20:51:41.853Z,66.27
2019-02-05T20:54:11.151Z,70.90
2019-02-05T20:56:40.447Z,64.40
2019-02-05T20:59:10.039Z,65.50
2019-02-05T21:01:39.427Z,65.03
2019-02-05T21:04:08.762Z,73.50
2019-02-05T21:06:37.995Z,68.13
2019-02-05T21:09:25.756Z,70.10
2019-02-05T21:11:55.083Z,62.33
2019-02-05T21:14:24.415Z,62.53
2019-02-05T21:16:53.868Z,68.97
2019-02-05T21:19:23.181Z,70.17
2019-02-05T21:21:52.954Z,70.43
2019-02-05T21:24:22.307Z,66.67
2019-02-05T21:26:51.714Z,68.37
2019-02-05T21:29:20.886Z,77.33
2019-02-05T21:31:50.193Z,70.43
2019-02-05T21:34:19.711Z,70.00
2019-02-05T21:36:49.295Z,73.83
2019-02-05T21:39:18.660Z,71.47
2019-02-05T21:41:48.045Z,72.67
2019-02-05T21:44:17.296Z,67.70
2019-02-05T21:46:46.498Z,71.97
2019-02-05T21:49:15.868Z,76.93
2019-02-05T21:51:45.259Z,74.43
2019-02-05T21:54:14.567Z,75.13
2019-02-05T21:56:43.844Z,71.93
2019-02-05T21:59:13.295Z,67.57
2019-02-05T22:01:42.700Z,75.03
2019-02-05T22:04:12.105Z,68.07
2019-02-05T22:06:41.531Z,69.43
2019-02-05T22:09:13.428Z,69.47
2019-02-05T22:11:42.741Z,66.43
2019-02-05T22:14:12.185Z,66.80
2019-02-05T22:16:41.594Z,68.90
2019-02-05T22:19:11.460Z,72.43
2019-02-05T22:21:40.954Z,64.93
2019-02-05T22:24:10.323Z,64.47
2019-02-05T22:26:42.422Z,68.27
2019-02-05T22:29:11.954Z,60.83
2019-02-05T22:31:41.322Z,71.03
2019-02-05T22:34:11.006Z,82.17
2019-02-05T22:36:40.382Z,77.93
2019-02-05T22:39:10.440Z,87.00
2019-02-05T22:41:39.814Z,80.30
2019-02-05T22:44:09.150Z,79.83
2019-02-05T22:46:38.964Z,87.40
2019-02-05T22:49:08.353Z,79.47
2019-02-05T22:51:38.114Z,74.40
2019-02-05T22:54:07.505Z,70.93
2019-02-05T22:56:36.905Z,69.47
2019-02-05T22:59:06.894Z,78.53
2019-02-05T23:01:52.476Z,69.03
2019-02-05T23:04:56.531Z,75.20
2019-02-05T23:07:27.690Z,83.00
2019-02-05T23:10:38.342Z,83.03
2019-02-05T23:13:13.144Z,98.83
2019-02-05T23:15:44.798Z,86.27
2019-02-05T23:18:15.877Z,96.73
2019-02-05T23:20:45.250Z,93.83
2019-02-05T23:23:14.823Z,80.10
2019-02-05T23:25:44.725Z,88.60
2019-02-05T23:28:14.141Z,106.87
2019-02-05T23:30:43.743Z,83.20
2019-02-05T23:33:13.351Z,85.37
2019-02-05T23:35:42.856Z,97.30
2019-02-05T23:38:12.459Z,118.13
2019-02-05T23:40:41.742Z,139.10
2019-02-05T23:43:11.115Z,122.57
2019-02-05T23:45:40.570Z,112.93
2019-02-05T23:48:10.552Z,105.53
2019-02-05T23:50:40.009Z,99.17
2019-02-05T23:53:09.410Z,96.30
2019-02-05T23:55:38.787Z,103.80
2019-02-05T23:58:08.362Z,93.13
